createdAt,value
2022-12-25T00:01:33.555Z,18.17
2022-12-25T00:04:01.257Z,19.45
2022-12-25T00:06:28.680Z,15.25
2022-12-25T00:08:56.008Z,21.63
2022-12-25T00:11:23.424Z,17.65
2022-12-25T00:13:51.204Z,18.92
2022-12-25T00:16:22.677Z,21.23
2022-12-25T00:18:51.495Z,16.77
2022-12-25T00:21:20.723Z,20.63
2022-12-25T00:23:48.686Z,17.30
2022-12-25T00:26:17.923Z,29.00
2022-12-25T00:28:47.159Z,19.15
2022-12-25T00:31:22.531Z,19.80
2022-12-25T00:33:51.434Z,22.70
2022-12-25T00:36:22.040Z,20.60
2022-12-25T00:38:49.475Z,21.33
2022-12-25T00:41:39.425Z,22.88
2022-12-25T00:44:07.876Z,18.42
2022-12-25T00:46:35.641Z,19.55
2022-12-25T00:49:03.734Z,22.17
2022-12-25T00:51:31.012Z,21.63
2022-12-25T00:53:58.651Z,21.73
2022-12-25T00:56:26.085Z,23.80
2022-12-25T00:58:54.354Z,20.63
2022-12-25T01:01:21.925Z,22.52
2022-12-25T01:03:50.160Z,23.13
2022-12-25T01:06:17.640Z,26.35
2022-12-25T01:09:04.796Z,24.60
2022-12-25T01:11:34.383Z,21.33
2022-12-25T01:14:02.033Z,25.63
2022-12-25T01:16:29.722Z,25.33
2022-12-25T01:18:57.253Z,25.08
2022-12-25T01:21:24.713Z,31.33
2022-12-25T01:23:53.595Z,20.83
2022-12-25T01:26:23.838Z,22.13
2022-12-25T01:28:51.890Z,21.73
2022-12-25T01:31:24.494Z,26.23
2022-12-25T01:33:53.016Z,27.35
2022-12-25T01:36:23.286Z,20.55
2022-12-25T01:38:51.925Z,26.05
2022-12-25T01:41:22.328Z,18.10
2022-12-25T01:44:01.630Z,22.65
2022-12-25T01:46:30.152Z,20.20
2022-12-25T01:49:01.956Z,19.52
2022-12-25T01:51:35.644Z,28.30
2022-12-25T01:54:07.542Z,22.40
2022-12-25T01:56:37.251Z,30.05
2022-12-25T01:59:08.638Z,18.40
2022-12-25T02:01:36.594Z,20.88
2022-12-25T02:04:38.858Z,23.27
2022-12-25T02:07:13.828Z,21.17
2022-12-25T02:09:41.902Z,22.90
2022-12-25T02:12:15.263Z,25.15
2022-12-25T02:14:42.662Z,23.98
2022-12-25T02:17:30.130Z,26.88
2022-12-25T02:20:03.906Z,23.63
2022-12-25T02:23:18.525Z,22.92
2022-12-25T02:26:07.789Z,25.80
2022-12-25T02:28:45.443Z,23.80
2022-12-25T02:31:27.464Z,24.25
2022-12-25T02:34:12.079Z,24.60
2022-12-25T02:36:53.978Z,22.98
2022-12-25T02:39:59.281Z,22.65
2022-12-25T02:42:56.299Z,22.00
2022-12-25T02:46:07.911Z,22.98
2022-12-25T02:49:00.500Z,23.23
2022-12-25T02:51:50.888Z,22.95
2022-12-25T02:54:42.828Z,23.55
2022-12-25T02:57:31.643Z,22.38
2022-12-25T03:00:19.728Z,22.30
2022-12-25T03:03:07.626Z,22.42
2022-12-25T03:05:57.494Z,25.08
2022-12-25T03:08:29.797Z,24.47
2022-12-25T03:11:29.869Z,23.58
2022-12-25T03:14:26.929Z,22.33
2022-12-25T03:16:58.989Z,24.67
2022-12-25T03:19:48.999Z,23.58
2022-12-25T03:22:48.373Z,24.23
2022-12-25T03:25:35.922Z,24.58
2022-12-25T03:28:03.843Z,25.60
2022-12-25T03:31:12.631Z,24.10
2022-12-25T03:34:20.065Z,25.20
2022-12-25T03:37:20.851Z,23.85
2022-12-25T03:40:30.631Z,27.02
2022-12-25T03:43:25.772Z,23.33
2022-12-25T03:46:17.866Z,24.40
2022-12-25T03:49:08.731Z,24.70
2022-12-25T03:54:46.636Z,24.23
2022-12-25T04:00:35.680Z,23.35
2022-12-25T04:03:38.536Z,26.15
2022-12-25T04:06:24.899Z,27.55
2022-12-25T04:09:10.604Z,26.55
2022-12-25T04:12:02.165Z,25.55
2022-12-25T04:14:48.816Z,25.85
2022-12-25T04:17:54.587Z,27.60
2022-12-25T04:20:40.936Z,27.90
2022-12-25T04:23:27.065Z,28.02
2022-12-25T04:26:15.633Z,29.33
2022-12-25T04:29:01.826Z,27.35
2022-12-25T04:31:47.417Z,28.15
2022-12-25T04:34:33.067Z,27.67
2022-12-25T04:37:00.331Z,25.60
2022-12-25T04:39:27.575Z,26.92
2022-12-25T04:41:54.815Z,26.80
2022-12-25T04:44:22.223Z,26.95
2022-12-25T04:46:51.145Z,25.23
2022-12-25T04:49:24.544Z,26.40
2022-12-25T04:51:51.884Z,28.08
2022-12-25T04:54:19.265Z,24.10
2022-12-25T04:56:46.617Z,25.15
2022-12-25T04:59:14.096Z,24.77
2022-12-25T05:01:41.482Z,24.00
2022-12-25T05:04:08.836Z,24.83
2022-12-25T05:06:37.219Z,24.65
2022-12-25T05:09:04.633Z,26.63
2022-12-25T05:11:31.995Z,27.58
2022-12-25T05:14:00.221Z,28.25
2022-12-25T05:16:28.099Z,29.80
2022-12-25T05:18:55.499Z,31.50
2022-12-25T05:21:23.348Z,29.98
2022-12-25T05:23:54.140Z,30.23
2022-12-25T05:28:50.728Z,32.35
2022-12-25T05:31:18.958Z,31.10
2022-12-25T05:33:50.343Z,29.05
2022-12-25T05:36:17.893Z,29.17
2022-12-25T05:38:45.319Z,29.33
2022-12-25T05:41:12.732Z,27.85
2022-12-25T05:43:39.980Z,30.33
2022-12-25T05:46:09.281Z,31.15
2022-12-25T05:48:37.895Z,32.70
2022-12-25T05:51:10.516Z,34.42
2022-12-25T05:53:38.591Z,31.83
2022-12-25T05:56:09.264Z,34.47
2022-12-25T05:58:38.448Z,32.08
2022-12-25T06:01:23.241Z,33.08
2022-12-25T06:03:51.210Z,34.08
2022-12-25T06:06:19.176Z,33.35
2022-12-25T06:08:46.584Z,36.40
2022-12-25T06:11:15.019Z,35.05
2022-12-25T06:13:42.551Z,36.05
2022-12-25T06:16:13.411Z,34.92
2022-12-25T06:18:44.644Z,37.05
2022-12-25T06:21:14.463Z,37.95
2022-12-25T06:23:42.830Z,36.83
2022-12-25T06:26:14.389Z,36.25
2022-12-25T06:28:43.454Z,37.25
2022-12-25T06:31:19.305Z,37.67
2022-12-25T06:33:47.208Z,35.75
2022-12-25T06:36:17.500Z,41.50
2022-12-25T06:38:45.185Z,40.88
2022-12-25T06:41:15.727Z,40.65
2022-12-25T06:43:43.040Z,39.50
2022-12-25T06:46:12.390Z,36.78
2022-12-25T06:48:41.363Z,39.35
2022-12-25T06:51:08.609Z,39.00
2022-12-25T06:53:40.243Z,39.58
2022-12-25T06:56:10.545Z,36.13
2022-12-25T06:58:37.811Z,28.77
2022-12-25T07:01:24.398Z,38.78
2022-12-25T07:03:55.277Z,37.20
2022-12-25T07:08:49.902Z,36.08
2022-12-25T07:11:17.902Z,37.85
2022-12-25T07:13:45.400Z,36.90
2022-12-25T07:16:13.284Z,35.35
2022-12-25T07:18:41.421Z,32.88
2022-12-25T07:21:11.861Z,33.35
2022-12-25T07:23:39.377Z,34.60
2022-12-25T07:26:07.095Z,36.28
2022-12-25T07:28:35.186Z,33.78
2022-12-25T07:31:08.433Z,36.42
2022-12-25T07:33:36.396Z,34.15
2022-12-25T07:36:05.553Z,42.08
2022-12-25T07:38:32.933Z,35.15
2022-12-25T07:41:00.696Z,41.47
2022-12-25T07:43:28.234Z,34.47
2022-12-25T07:45:57.888Z,36.97
2022-12-25T07:48:29.021Z,36.28
2022-12-25T07:51:05.128Z,36.65
2022-12-25T07:53:33.168Z,34.90
2022-12-25T07:56:02.419Z,36.35
2022-12-25T07:58:30.660Z,32.45
2022-12-25T08:01:06.409Z,35.17
2022-12-25T08:03:35.549Z,33.90
2022-12-25T08:06:05.551Z,33.72
2022-12-25T08:08:33.962Z,32.35
2022-12-25T08:11:01.266Z,33.17
2022-12-25T08:13:32.495Z,30.90
2022-12-25T08:16:05.537Z,30.67
2022-12-25T08:18:32.796Z,32.90
2022-12-25T08:21:05.294Z,32.15
2022-12-25T08:23:35.435Z,34.20
2022-12-25T08:26:05.591Z,34.42
2022-12-25T08:28:33.649Z,34.60
2022-12-25T08:31:21.000Z,36.38
2022-12-25T08:33:49.979Z,34.00
2022-12-25T08:36:18.562Z,36.13
2022-12-25T08:38:46.266Z,37.42
2022-12-25T08:41:14.911Z,32.33
2022-12-25T08:43:43.160Z,32.28
2022-12-25T08:46:11.058Z,34.55
2022-12-25T08:48:38.698Z,32.92
2022-12-25T08:51:11.305Z,32.70
2022-12-25T08:53:38.747Z,30.55
2022-12-25T08:56:06.421Z,31.02
2022-12-25T08:58:34.598Z,28.02
2022-12-25T09:01:02.026Z,30.73
2022-12-25T09:03:32.248Z,35.80
2022-12-25T09:06:05.512Z,28.65
2022-12-25T09:08:33.576Z,29.88
2022-12-25T09:11:05.991Z,29.27
2022-12-25T09:13:33.936Z,27.80
2022-12-25T09:16:06.239Z,26.48
2022-12-25T09:18:34.682Z,26.08
2022-12-25T09:21:04.663Z,26.40
2022-12-25T09:23:33.591Z,25.30
2022-12-25T09:26:06.717Z,24.60
2022-12-25T09:28:34.451Z,24.70
2022-12-25T09:31:02.596Z,23.10
2022-12-25T09:33:29.969Z,24.45
2022-12-25T09:35:59.601Z,27.95
2022-12-25T09:38:29.251Z,25.63
2022-12-25T09:41:09.318Z,24.40
2022-12-25T09:43:47.203Z,21.88
2022-12-25T09:46:20.475Z,21.67
2022-12-25T09:49:21.116Z,20.77
2022-12-25T09:51:54.992Z,21.15
2022-12-25T09:54:34.291Z,19.23
2022-12-25T09:57:01.941Z,18.20
2022-12-25T09:59:29.390Z,17.40
2022-12-25T10:02:15.414Z,17.85
2022-12-25T10:04:54.854Z,16.33
2022-12-25T10:08:02.202Z,16.90
2022-12-25T10:10:47.290Z,14.70
2022-12-25T10:13:26.904Z,15.07
2022-12-25T10:16:16.130Z,14.85
2022-12-25T10:18:53.753Z,15.23
2022-12-25T10:21:23.641Z,15.10
2022-12-25T10:24:13.338Z,12.53
2022-12-25T10:26:41.039Z,13.68
2022-12-25T10:29:15.387Z,14.05
2022-12-25T10:31:46.880Z,12.23
2022-12-25T10:34:16.161Z,12.38
2022-12-25T10:36:47.360Z,12.48
2022-12-25T10:39:19.864Z,12.30
2022-12-25T10:42:10.755Z,11.40
2022-12-25T10:47:14.992Z,11.07
2022-12-25T10:49:49.825Z,11.57
2022-12-25T10:52:28.427Z,11.20
2022-12-25T10:54:58.025Z,12.70
2022-12-25T10:57:29.336Z,11.93
2022-12-25T10:59:59.564Z,11.20
2022-12-25T11:02:47.751Z,11.02
2022-12-25T11:05:31.322Z,11.50
2022-12-25T11:08:02.222Z,10.73
2022-12-25T11:10:41.471Z,10.93
2022-12-25T11:13:33.961Z,10.05
2022-12-25T11:16:15.472Z,10.25
2022-12-25T11:19:02.915Z,11.20
2022-12-25T11:21:34.576Z,10.50
2022-12-25T11:27:03.097Z,10.52
2022-12-25T11:30:21.291Z,10.18
2022-12-25T11:32:57.167Z,9.63
2022-12-25T11:35:33.309Z,9.75
2022-12-25T11:38:06.010Z,10.07
2022-12-25T11:41:00.456Z,9.70
2022-12-25T11:44:06.167Z,12.90
2022-12-25T11:46:53.901Z,9.23
2022-12-25T11:49:40.171Z,9.45
2022-12-25T11:52:19.349Z,9.88
2022-12-25T11:55:46.481Z,9.60
2022-12-25T11:58:37.074Z,8.98
2022-12-25T12:01:26.697Z,11.07
2022-12-25T12:07:03.825Z,14.23
2022-12-25T12:10:09.924Z,14.13
2022-12-25T12:13:15.188Z,15.85
2022-12-25T12:15:57.524Z,13.32
2022-12-25T12:18:51.956Z,15.77
2022-12-25T12:21:29.256Z,13.13
2022-12-25T12:24:09.414Z,13.20
2022-12-25T12:26:41.094Z,13.40
2022-12-25T12:29:27.461Z,14.55
2022-12-25T12:32:00.230Z,13.23
2022-12-25T12:34:42.390Z,14.52
2022-12-25T12:37:35.829Z,14.55
2022-12-25T12:40:11.240Z,14.80
2022-12-25T12:42:50.958Z,14.35
2022-12-25T12:45:28.303Z,15.00
2022-12-25T12:47:57.053Z,35.50
2022-12-25T12:50:45.545Z,40.45
2022-12-25T12:53:30.140Z,22.88
2022-12-25T12:56:32.254Z,14.95
2022-12-25T12:59:10.348Z,16.83
2022-12-25T13:01:48.158Z,14.35
2022-12-25T13:04:25.703Z,13.55
2022-12-25T13:06:55.695Z,13.40
2022-12-25T13:10:15.605Z,14.35
2022-12-25T13:13:00.581Z,14.07
2022-12-25T13:15:34.141Z,14.00
2022-12-25T13:18:11.091Z,13.95
2022-12-25T13:20:58.884Z,13.70
2022-12-25T13:23:45.337Z,13.45
2022-12-25T13:26:17.420Z,13.43
2022-12-25T13:28:49.777Z,13.90
2022-12-25T13:31:37.333Z,13.57
2022-12-25T13:34:18.375Z,13.38
2022-12-25T13:36:48.466Z,12.98
2022-12-25T13:39:19.987Z,11.73
2022-12-25T13:42:08.355Z,11.77
2022-12-25T13:45:09.156Z,11.52
2022-12-25T13:47:49.937Z,11.50
2022-12-25T13:50:25.256Z,10.90
2022-12-25T13:53:02.120Z,12.65
2022-12-25T13:55:33.902Z,11.38
2022-12-25T13:58:39.766Z,12.77
2022-12-25T14:01:07.600Z,13.25
2022-12-25T14:03:40.097Z,13.25
2022-12-25T14:06:20.763Z,13.93
2022-12-25T14:08:48.923Z,12.90
2022-12-25T14:11:20.586Z,12.57
2022-12-25T14:13:51.316Z,13.20
2022-12-25T14:16:20.902Z,13.18
2022-12-25T14:19:01.083Z,12.38
2022-12-25T14:21:41.805Z,12.13
2022-12-25T14:26:46.066Z,10.90
2022-12-25T14:29:28.488Z,12.10
2022-12-25T14:32:08.385Z,12.10
2022-12-25T14:34:37.925Z,11.05
2022-12-25T14:37:23.386Z,10.63
2022-12-25T14:40:03.131Z,11.23
2022-12-25T14:42:33.418Z,10.30
2022-12-25T14:47:53.949Z,13.80
2022-12-25T14:50:41.210Z,11.38
2022-12-25T14:53:24.957Z,11.32
2022-12-25T14:55:55.864Z,11.07
2022-12-25T14:58:54.454Z,11.00
2022-12-25T15:01:45.633Z,12.20
2022-12-25T15:04:18.352Z,10.75
2022-12-25T15:07:12.086Z,12.02
2022-12-25T15:09:40.651Z,11.32
2022-12-25T15:12:09.576Z,11.90
2022-12-25T15:14:42.538Z,11.68
2022-12-25T15:17:24.086Z,11.95
2022-12-25T15:19:55.952Z,11.63
2022-12-25T15:22:54.008Z,11.32
2022-12-25T15:25:22.198Z,11.05
2022-12-25T15:30:23.856Z,12.65
2022-12-25T15:33:06.010Z,12.73
2022-12-25T15:35:36.515Z,12.07
2022-12-25T15:38:03.875Z,12.95
2022-12-25T15:40:31.209Z,12.45
2022-12-25T15:42:59.979Z,13.45
2022-12-25T15:45:33.170Z,12.70
2022-12-25T15:48:11.148Z,13.05
2022-12-25T15:50:40.434Z,16.38
2022-12-25T15:53:12.909Z,13.82
2022-12-25T15:55:40.437Z,14.40
2022-12-25T15:58:13.421Z,14.10
2022-12-25T16:00:43.371Z,16.05
2022-12-25T16:03:19.101Z,16.13
2022-12-25T16:05:46.636Z,13.27
2022-12-25T16:08:15.415Z,16.35
2022-12-25T16:10:52.819Z,19.73
2022-12-25T16:13:28.539Z,15.80
2022-12-25T16:16:00.462Z,14.23
2022-12-25T16:18:35.279Z,13.88
2022-12-25T16:21:03.608Z,13.25
2022-12-25T16:23:32.056Z,15.60
2022-12-25T16:26:02.120Z,14.43
2022-12-25T16:28:33.281Z,16.40
2022-12-25T16:31:01.003Z,15.57
2022-12-25T16:33:34.610Z,18.05
2022-12-25T16:36:29.139Z,13.10
2022-12-25T16:39:04.594Z,12.38
2022-12-25T16:41:46.222Z,13.32
2022-12-25T16:44:14.750Z,13.98
2022-12-25T16:46:44.083Z,14.38
2022-12-25T16:49:20.011Z,14.95
2022-12-25T16:51:48.113Z,13.50
2022-12-25T16:54:15.554Z,14.80
2022-12-25T16:56:44.541Z,15.13
2022-12-25T16:59:20.959Z,16.80
2022-12-25T17:01:51.368Z,15.23
2022-12-25T17:04:22.205Z,19.15
2022-12-25T17:06:52.083Z,18.13
2022-12-25T17:09:23.120Z,16.73
2022-12-25T17:11:51.763Z,17.77
2022-12-25T17:14:20.454Z,16.88
2022-12-25T17:16:49.418Z,15.98
2022-12-25T17:19:31.610Z,15.13
2022-12-25T17:22:00.276Z,15.00
2022-12-25T17:24:29.305Z,18.23
2022-12-25T17:27:00.057Z,16.67
2022-12-25T17:29:28.146Z,20.42
2022-12-25T17:31:55.946Z,20.50
2022-12-25T17:34:23.466Z,22.40
2022-12-25T17:36:51.490Z,23.52
2022-12-25T17:39:19.100Z,21.70
2022-12-25T17:41:48.648Z,23.48
2022-12-25T17:44:16.795Z,22.48
2022-12-25T17:46:45.594Z,24.73
2022-12-25T17:49:19.163Z,23.20
2022-12-25T17:51:47.401Z,24.90
2022-12-25T17:54:14.811Z,27.58
2022-12-25T17:56:42.532Z,27.85
2022-12-25T17:59:18.227Z,33.75
2022-12-25T18:01:50.177Z,32.28
2022-12-25T18:04:21.294Z,32.30
2022-12-25T18:06:49.761Z,38.28
2022-12-25T18:09:19.931Z,30.58
2022-12-25T18:11:55.063Z,29.15
2022-12-25T18:14:23.285Z,27.75
2022-12-25T18:16:53.708Z,24.48
2022-12-25T18:19:29.665Z,32.42
2022-12-25T18:21:57.749Z,29.00
2022-12-25T18:24:26.199Z,25.63
2022-12-25T18:26:53.641Z,27.17
2022-12-25T18:29:22.037Z,23.88
2022-12-25T18:31:50.856Z,23.95
2022-12-25T18:34:18.864Z,25.98
2022-12-25T18:36:54.395Z,26.60
2022-12-25T18:39:24.385Z,22.42
2022-12-25T18:42:10.174Z,30.40
2022-12-25T18:44:41.077Z,28.25
2022-12-25T18:47:10.916Z,25.75
2022-12-25T18:49:39.702Z,34.97
2022-12-25T18:52:49.713Z,31.80
2022-12-25T18:55:00.908Z,26.98
2022-12-25T18:57:34.372Z,19.60
2022-12-25T19:00:06.170Z,29.65
2022-12-25T19:02:37.371Z,29.45
2022-12-25T19:07:50.603Z,31.77
2022-12-25T19:10:18.071Z,32.92
2022-12-25T19:12:45.425Z,34.75
2022-12-25T19:15:13.522Z,32.63
2022-12-25T19:17:40.905Z,28.75
2022-12-25T19:20:08.874Z,30.45
2022-12-25T19:22:36.165Z,31.73
2022-12-25T19:25:04.043Z,28.48
2022-12-25T19:27:31.485Z,30.52
2022-12-25T19:29:59.288Z,31.50
2022-12-25T19:32:26.546Z,30.65
2022-12-25T19:34:53.993Z,32.83
2022-12-25T19:37:21.344Z,33.33
2022-12-25T19:39:50.349Z,29.33
2022-12-25T19:42:19.037Z,32.78
2022-12-25T19:44:46.660Z,30.20
2022-12-25T19:47:14.132Z,30.13
2022-12-25T19:49:43.727Z,32.45
2022-12-25T19:52:12.955Z,28.40
2022-12-25T19:54:40.156Z,28.30
2022-12-25T19:57:07.528Z,29.33
2022-12-25T19:59:35.092Z,32.33
2022-12-25T20:02:02.482Z,27.88
2022-12-25T20:04:29.858Z,27.65
2022-12-25T20:06:57.461Z,29.85
2022-12-25T20:09:24.868Z,26.58
2022-12-25T20:11:52.155Z,31.52
2022-12-25T20:14:19.808Z,28.73
2022-12-25T20:16:47.284Z,36.85
2022-12-25T20:19:15.292Z,34.53
2022-12-25T20:21:42.704Z,35.78
2022-12-25T20:24:11.451Z,27.80
2022-12-25T20:26:39.597Z,32.30
2022-12-25T20:29:07.179Z,30.95
2022-12-25T20:31:35.734Z,33.92
2022-12-25T20:34:08.469Z,36.13
2022-12-25T20:36:38.084Z,36.30
2022-12-25T20:39:09.857Z,28.25
2022-12-25T20:41:38.605Z,32.63
2022-12-25T20:44:08.492Z,33.38
2022-12-25T20:46:37.533Z,31.52
2022-12-25T20:49:05.495Z,32.78
2022-12-25T20:51:32.831Z,40.70
2022-12-25T20:54:01.347Z,34.13
2022-12-25T20:56:30.369Z,35.22
2022-12-25T20:58:59.663Z,35.80
2022-12-25T21:01:28.694Z,34.10
2022-12-25T21:03:56.571Z,33.03
2022-12-25T21:06:24.073Z,29.92
2022-12-25T21:08:52.813Z,32.92
2022-12-25T21:11:21.439Z,35.63
2022-12-25T21:13:49.724Z,33.55
2022-12-25T21:16:20.186Z,33.65
2022-12-25T21:18:48.926Z,34.92
2022-12-25T21:21:16.367Z,31.40
2022-12-25T21:23:44.457Z,33.60
2022-12-25T21:26:32.025Z,37.33
2022-12-25T21:29:02.005Z,31.08
2022-12-25T21:31:30.753Z,34.33
2022-12-25T21:34:05.976Z,37.53
2022-12-25T21:36:34.816Z,45.20
2022-12-25T21:39:08.848Z,38.13
2022-12-25T21:41:39.941Z,38.05
2022-12-25T21:44:08.065Z,36.83
2022-12-25T21:46:35.471Z,35.80
2022-12-25T21:49:03.051Z,35.03
2022-12-25T21:51:53.577Z,39.10
2022-12-25T21:56:50.420Z,39.33
2022-12-25T21:59:22.077Z,42.47
2022-12-25T22:01:51.428Z,33.03
2022-12-25T22:04:21.727Z,46.22
2022-12-25T22:07:10.104Z,47.40
2022-12-25T22:09:38.099Z,45.67
2022-12-25T22:12:30.112Z,40.33
2022-12-25T22:15:07.076Z,46.10
2022-12-25T22:17:59.769Z,45.40
2022-12-25T22:20:40.070Z,41.25
2022-12-25T22:23:07.818Z,38.65
2022-12-25T22:25:35.333Z,40.30
2022-12-25T22:28:03.634Z,41.60
2022-12-25T22:30:32.315Z,40.97
2022-12-25T22:33:02.896Z,40.40
2022-12-25T22:35:36.530Z,41.65
2022-12-25T22:38:03.883Z,37.72
2022-12-25T22:40:31.320Z,44.88
2022-12-25T22:42:58.704Z,47.78
2022-12-25T22:45:29.310Z,36.33
2022-12-25T22:47:59.363Z,35.53
2022-12-25T22:50:27.138Z,35.80
2022-12-25T22:52:54.630Z,31.67
2022-12-25T22:55:22.072Z,30.20
2022-12-25T22:57:49.500Z,27.98
2022-12-25T23:00:16.890Z,23.42
2022-12-25T23:02:44.432Z,22.50
2022-12-25T23:05:12.487Z,21.65
2022-12-25T23:07:40.662Z,23.38
2022-12-25T23:10:09.027Z,25.10
2022-12-25T23:12:54.976Z,26.65
2022-12-25T23:15:22.431Z,27.42
2022-12-25T23:18:08.433Z,25.63
2022-12-25T23:20:55.343Z,29.80
2022-12-25T23:23:42.365Z,28.00
2022-12-25T23:26:10.425Z,29.77
2022-12-25T23:28:59.638Z,28.92
2022-12-25T23:31:30.850Z,28.83
2022-12-25T23:33:58.683Z,31.63
2022-12-25T23:36:26.582Z,33.20
2022-12-25T23:38:55.344Z,30.15
2022-12-25T23:41:22.945Z,32.85
2022-12-25T23:43:50.489Z,32.35
2022-12-25T23:46:17.776Z,30.58
2022-12-25T23:48:53.202Z,30.05
2022-12-25T23:51:20.665Z,32.08
2022-12-25T23:53:48.569Z,34.80
2022-12-25T23:56:15.994Z,31.38
2022-12-25T23:58:49.430Z,31.40
